createdAt,value
2023-02-26T00:02:17.284Z,2.60
2023-02-26T00:12:24.185Z,2.60
2023-02-26T00:22:31.290Z,3.10
2023-02-26T00:32:39.550Z,2.60
2023-02-26T00:42:46.263Z,3.40
2023-02-26T00:53:03.250Z,4.20
2023-02-26T01:03:11.227Z,2.40
2023-02-26T01:13:17.871Z,3.40
2023-02-26T01:23:27.043Z,3.00
2023-02-26T01:33:39.611Z,3.00
2023-02-26T01:43:52.570Z,3.50
2023-02-26T01:53:58.224Z,3.50
2023-02-26T02:04:04.377Z,3.20
2023-02-26T02:14:19.792Z,2.70
2023-02-26T02:24:35.648Z,3.10
2023-02-26T02:34:47.432Z,2.30
2023-02-26T02:44:57.682Z,2.60
2023-02-26T02:55:07.616Z,2.60
2023-02-26T03:05:13.604Z,2.40
2023-02-26T03:25:28.673Z,2.00
2023-02-26T03:35:44.290Z,1.70
2023-02-26T03:45:54.295Z,2.10
2023-02-26T03:56:04.841Z,1.80
2023-02-26T04:06:11.514Z,2.10
2023-02-26T04:16:18.734Z,1.80
2023-02-26T04:26:24.733Z,1.80
2023-02-26T04:36:30.857Z,1.60
2023-02-26T04:46:36.722Z,1.80
2023-02-26T04:56:42.468Z,1.30
2023-02-26T05:06:48.101Z,1.60
2023-02-26T05:16:53.698Z,1.50
2023-02-26T05:27:03.708Z,1.60
2023-02-26T05:37:09.318Z,1.20
2023-02-26T05:47:15.063Z,1.80
2023-02-26T05:57:20.675Z,1.40
2023-02-26T06:07:26.306Z,2.20
2023-02-26T06:17:31.899Z,2.10
2023-02-26T06:27:37.830Z,2.30
2023-02-26T06:37:43.683Z,1.70
2023-02-26T06:47:49.309Z,1.90
2023-02-26T06:57:55.468Z,1.90
2023-02-26T07:18:05.767Z,1.90
2023-02-26T07:28:11.491Z,2.20
2023-02-26T07:38:19.547Z,1.90
2023-02-26T07:48:25.577Z,2.10
2023-02-26T07:58:31.377Z,2.40
2023-02-26T08:08:37.218Z,2.10
2023-02-26T08:18:42.900Z,2.80
2023-02-26T08:28:48.876Z,1.80
2023-02-26T08:38:54.526Z,2.00
2023-02-26T08:49:00.201Z,1.80
2023-02-26T08:59:05.954Z,2.30
2023-02-26T09:09:11.849Z,1.90
2023-02-26T09:19:17.619Z,2.90
2023-02-26T09:29:23.280Z,2.50
2023-02-26T09:39:29.018Z,2.10
2023-02-26T09:49:51.372Z,1.90
2023-02-26T09:59:57.351Z,2.10
2023-02-26T10:10:20.655Z,1.90
2023-02-26T10:20:32.006Z,2.50
2023-02-26T10:30:44.122Z,1.90
2023-02-26T10:40:54.421Z,1.70
2023-02-26T10:51:03.968Z,2.20
2023-02-26T11:01:18.347Z,2.30
2023-02-26T11:11:43.951Z,2.50
2023-02-26T11:21:51.982Z,2.70
2023-02-26T11:32:01.544Z,1.90
2023-02-26T11:42:07.806Z,2.20
2023-02-26T11:52:29.262Z,1.30
2023-02-26T12:02:41.139Z,2.10
2023-02-26T12:13:05.125Z,1.70
2023-02-26T12:23:26.006Z,2.00
2023-02-26T12:33:48.754Z,1.80
2023-02-26T12:43:56.088Z,1.30
2023-02-26T12:54:25.940Z,2.70
2023-02-26T13:04:58.171Z,2.70
2023-02-26T13:15:20.150Z,1.80
2023-02-26T13:25:31.729Z,1.40
2023-02-26T13:35:42.128Z,1.70
2023-02-26T13:46:01.756Z,2.20
2023-02-26T13:56:16.662Z,2.90
2023-02-26T14:06:42.557Z,3.40
2023-02-26T14:16:54.511Z,2.50
2023-02-26T14:27:25.649Z,3.50
2023-02-26T14:37:33.422Z,2.00
2023-02-26T14:47:39.774Z,2.30
2023-02-26T14:57:50.857Z,1.80
2023-02-26T15:08:13.045Z,2.00
2023-02-26T15:18:45.412Z,3.00
2023-02-26T15:28:52.968Z,1.90
2023-02-26T15:39:01.684Z,2.00
2023-02-26T15:49:15.873Z,3.10
2023-02-26T15:59:26.650Z,2.80
2023-02-26T16:09:35.751Z,3.60
2023-02-26T16:19:44.705Z,2.20
2023-02-26T16:29:54.140Z,2.70
2023-02-26T16:40:08.476Z,3.10
2023-02-26T16:50:20.425Z,2.20
2023-02-26T17:00:31.248Z,2.60
2023-02-26T17:10:40.607Z,3.00
2023-02-26T17:20:47.445Z,2.00
2023-02-26T17:30:54.143Z,2.30
2023-02-26T17:41:00.796Z,2.60
2023-02-26T17:51:07.244Z,2.40
2023-02-26T18:11:20.050Z,3.50
2023-02-26T18:21:27.355Z,3.20
2023-02-26T18:31:35.412Z,3.80
2023-02-26T18:41:41.425Z,3.40
2023-02-26T18:51:47.179Z,3.70
2023-02-26T19:01:53.101Z,3.70
2023-02-26T19:11:59.561Z,3.40
2023-02-26T19:22:05.335Z,3.90
2023-02-26T19:32:11.677Z,5.40
2023-02-26T19:42:17.821Z,4.30
2023-02-26T19:52:23.778Z,3.40
2023-02-26T20:02:29.947Z,3.70
2023-02-26T20:12:36.336Z,3.90
2023-02-26T20:22:42.335Z,3.10
2023-02-26T20:32:48.335Z,3.50
2023-02-26T20:42:54.246Z,2.10
2023-02-26T20:53:00.039Z,3.00
2023-02-26T21:03:07.306Z,3.20
2023-02-26T21:13:13.237Z,2.10
2023-02-26T21:23:19.195Z,2.90
2023-02-26T21:33:24.925Z,3.10
2023-02-26T21:43:30.703Z,3.10
2023-02-26T21:53:36.434Z,2.40
2023-02-26T22:03:42.445Z,3.10
2023-02-26T22:13:49.363Z,2.60
2023-02-26T22:23:55.478Z,3.60
2023-02-26T22:34:01.734Z,3.00
2023-02-26T22:44:08.074Z,2.60
2023-02-26T23:04:18.781Z,2.60
2023-02-26T23:14:24.648Z,3.20
2023-02-26T23:24:30.495Z,3.70
2023-02-26T23:34:36.239Z,3.10
2023-02-26T23:44:42.086Z,3.20
2023-02-26T23:54:47.826Z,2.20
